CheckWX is a tool to help pilots better visualize weather data.  It is not intended as a substitute for an official pre-flight weather briefing.

14:50:36 UTC

KSNT METAR
Stanley Ranger Station Airport
Stanley, Idaho, USA
Current

1 hour ago

KSNT 201348Z AUTO 32003KT 03/01 A2968 RMK AO1 SLP011 T00280006
Observed
May-20 @ 13:48 UTC
Wind
  • 320° at 3 KTS
Visibility
Temperature
C / 37°F
Dewpoint
C / 34°F
Humidity
87%
Altimeter
29.68" Hg
Pressure
1005.12 hPa
Previous

2 hours ago

KSNT 201248Z AUTO VRB03KT 03/01 A2967 RMK AO1 SLP004 P0001 T00280006
Observed
May-20 @ 12:48 UTC
Wind
  • Variable at 3 KTS
Visibility
Temperature
C / 37°F
Dewpoint
C / 34°F
Humidity
87%
Altimeter
29.67" Hg
Pressure
1004.72 hPa
Current Rain
0.01"
Previous

3 hours ago

KSNT 201148Z AUTO 30005KT 03/01 A2966 RMK AO1 SLP986 70015 T00330006 10039 20028 53004
Observed
May-20 @ 11:48 UTC
Wind
  • 300° at 5 KTS
Visibility
Temperature
C / 37°F
Dewpoint
C / 34°F
Humidity
87%
Altimeter
29.66" Hg
Pressure
1004.42 hPa
24 Hour Rain
0.15"